createdAt,value
2024-01-20T00:00:03.516Z,1016.07
2024-01-20T00:01:03.632Z,1016.12
2024-01-20T00:02:03.583Z,1016.09
2024-01-20T00:03:03.519Z,1016.12
2024-01-20T00:04:03.523Z,1016.08
2024-01-20T00:05:03.514Z,1016.16
2024-01-20T00:06:03.528Z,1016.23
2024-01-20T00:07:03.509Z,1016.14
2024-01-20T00:08:03.456Z,1016.10
2024-01-20T00:09:04.360Z,1016.13
2024-01-20T00:10:04.379Z,1016.06
2024-01-20T00:11:03.446Z,1016.16
2024-01-20T00:12:03.383Z,1016.16
2024-01-20T00:13:03.413Z,1016.11
2024-01-20T00:14:03.481Z,1016.15
2024-01-20T00:15:03.518Z,1016.10
2024-01-20T00:16:03.344Z,1016.16
2024-01-20T00:17:09.083Z,1016.13
2024-01-20T00:18:05.450Z,1016.13
2024-01-20T00:19:03.389Z,1016.15
2024-01-20T00:20:03.481Z,1016.20
2024-01-20T00:21:03.285Z,1016.23
2024-01-20T00:22:03.257Z,1016.19
2024-01-20T00:23:03.295Z,1016.10
2024-01-20T00:24:03.298Z,1016.07
2024-01-20T00:25:03.251Z,1016.29
2024-01-20T00:26:03.297Z,1016.07
2024-01-20T00:27:03.238Z,1016.20
2024-01-20T00:28:03.228Z,1016.15
2024-01-20T00:29:03.252Z,1016.16
2024-01-20T00:30:03.282Z,1016.21
2024-01-20T00:31:03.167Z,1016.18
2024-01-20T00:32:03.258Z,1016.24
2024-01-20T00:33:03.389Z,1016.17
2024-01-20T00:34:03.989Z,1016.23
2024-01-20T00:35:07.293Z,1016.20
2024-01-20T00:36:04.213Z,1016.19
2024-01-20T00:37:03.140Z,1016.20
2024-01-20T00:38:04.106Z,1016.27
2024-01-20T00:39:03.107Z,1016.23
2024-01-20T00:40:03.084Z,1016.29
2024-01-20T00:41:03.113Z,1016.35
2024-01-20T00:42:03.104Z,1016.26
2024-01-20T00:43:03.178Z,1016.30
2024-01-20T00:44:03.076Z,1016.32
2024-01-20T00:45:03.032Z,1016.25
2024-01-20T00:46:03.026Z,1016.18
2024-01-20T00:47:02.994Z,1016.22
2024-01-20T00:48:03.042Z,1016.22
2024-01-20T00:49:02.987Z,1016.17
2024-01-20T00:50:02.996Z,1016.17
2024-01-20T00:51:02.966Z,1016.13
2024-01-20T00:52:03.942Z,1016.14
2024-01-20T00:53:02.997Z,1016.29
2024-01-20T00:54:02.978Z,1016.16
2024-01-20T00:55:02.915Z,1016.18
2024-01-20T00:56:02.961Z,1016.23
2024-01-20T00:57:02.903Z,1016.16
2024-01-20T00:58:02.909Z,1016.19
2024-01-20T00:59:02.922Z,1016.32
2024-01-20T01:00:02.937Z,1016.24
2024-01-20T01:01:02.867Z,1016.31
2024-01-20T01:02:02.921Z,1016.22
2024-01-20T01:03:02.868Z,1016.26
2024-01-20T01:04:02.836Z,1016.27
2024-01-20T01:05:03.548Z,1016.38
2024-01-20T01:06:03.925Z,1016.29
2024-01-20T01:07:02.787Z,1016.36
2024-01-20T01:08:02.873Z,1016.42
2024-01-20T01:09:02.783Z,1016.38
2024-01-20T01:10:02.767Z,1016.33
2024-01-20T01:11:02.807Z,1016.40
2024-01-20T01:12:02.785Z,1016.34
2024-01-20T01:13:02.749Z,1016.34
2024-01-20T01:14:02.785Z,1016.24
2024-01-20T01:15:02.787Z,1016.38
2024-01-20T01:16:02.705Z,1016.35
2024-01-20T01:17:02.791Z,1016.30
2024-01-20T01:18:02.770Z,1016.37
2024-01-20T01:19:02.683Z,1016.38
2024-01-20T01:20:02.818Z,1016.36
2024-01-20T01:21:02.664Z,1016.40
2024-01-20T01:22:02.639Z,1016.37
2024-01-20T01:23:02.674Z,1016.43
2024-01-20T01:24:02.661Z,1016.46
2024-01-20T01:25:02.614Z,1016.48
2024-01-20T01:26:02.713Z,1016.39
2024-01-20T01:27:02.634Z,1016.34
2024-01-20T01:28:02.563Z,1016.25
2024-01-20T01:29:02.593Z,1016.31
2024-01-20T01:30:02.708Z,1016.37
2024-01-20T01:31:02.557Z,1016.32
2024-01-20T01:32:02.591Z,1016.56
2024-01-20T01:33:02.582Z,1016.35
2024-01-20T01:34:02.570Z,1016.40
2024-01-20T01:35:02.649Z,1016.37
2024-01-20T01:36:02.518Z,1016.46
2024-01-20T01:37:02.486Z,1016.48
2024-01-20T01:38:02.578Z,1016.52
2024-01-20T01:39:02.476Z,1016.56
2024-01-20T01:40:02.437Z,1016.43
2024-01-20T01:41:02.506Z,1016.50
2024-01-20T01:42:02.458Z,1016.41
2024-01-20T01:43:02.543Z,1016.63
2024-01-20T01:44:02.550Z,1016.43
2024-01-20T01:45:02.393Z,1016.63
2024-01-20T01:46:02.388Z,1016.54
2024-01-20T01:47:02.425Z,1016.34
2024-01-20T01:48:02.497Z,1016.49
2024-01-20T01:49:02.372Z,1016.47
2024-01-20T01:50:02.392Z,1016.50
2024-01-20T01:51:02.344Z,1016.61
2024-01-20T01:52:02.305Z,1016.60
2024-01-20T01:53:02.324Z,1016.66
2024-01-20T01:54:02.360Z,1016.63
2024-01-20T01:55:02.294Z,1016.57
2024-01-20T01:56:02.287Z,1016.65
2024-01-20T01:57:02.304Z,1016.54
2024-01-20T01:58:02.290Z,1016.49
2024-01-20T01:59:02.247Z,1016.57
2024-01-20T02:00:02.312Z,1016.52
2024-01-20T02:01:02.268Z,1016.48
2024-01-20T02:02:02.204Z,1016.43
2024-01-20T02:03:02.321Z,1016.44
2024-01-20T02:04:02.233Z,1016.49
2024-01-20T02:05:02.208Z,1016.48
2024-01-20T02:06:02.275Z,1016.62
2024-01-20T02:07:02.189Z,1016.73
2024-01-20T02:08:02.167Z,1016.53
2024-01-20T02:09:02.155Z,1016.63
2024-01-20T02:10:02.145Z,1016.60
2024-01-20T02:11:02.099Z,1016.58
2024-01-20T02:12:02.199Z,1016.53
2024-01-20T02:13:02.102Z,1016.52
2024-01-20T02:14:02.071Z,1016.48
2024-01-20T02:15:02.137Z,1016.54
2024-01-20T02:16:02.055Z,1016.60
2024-01-20T02:17:02.057Z,1016.52
2024-01-20T02:18:02.154Z,1016.55
2024-01-20T02:19:02.110Z,1016.60
2024-01-20T02:20:02.007Z,1016.58
2024-01-20T02:21:02.034Z,1016.60
2024-01-20T02:22:01.978Z,1016.61
2024-01-20T02:23:02.005Z,1016.59
2024-01-20T02:24:02.023Z,1016.54
2024-01-20T02:25:01.972Z,1016.52
2024-01-20T02:26:01.959Z,1016.52
2024-01-20T02:27:02.018Z,1016.52
2024-01-20T02:28:01.956Z,1016.60
2024-01-20T02:29:01.930Z,1016.61
2024-01-20T02:30:02.009Z,1016.68
2024-01-20T02:31:01.910Z,1016.61
2024-01-20T02:32:01.975Z,1016.73
2024-01-20T02:33:01.977Z,1016.60
2024-01-20T02:34:01.969Z,1016.75
2024-01-20T02:35:01.869Z,1016.65
2024-01-20T02:36:01.907Z,1016.74
2024-01-20T02:37:01.855Z,1016.47
2024-01-20T02:38:01.836Z,1016.68
2024-01-20T02:39:01.840Z,1016.63
2024-01-20T02:40:01.816Z,1016.53
2024-01-20T02:41:01.806Z,1016.58
2024-01-20T02:42:01.883Z,1016.55
2024-01-20T02:43:01.767Z,1016.52
2024-01-20T02:44:01.754Z,1016.81
2024-01-20T02:45:01.813Z,1016.70
2024-01-20T02:46:01.734Z,1016.61
2024-01-20T02:47:01.727Z,1016.65
2024-01-20T02:48:01.950Z,1016.68
2024-01-20T02:49:01.916Z,1016.70
2024-01-20T02:50:01.837Z,1016.77
2024-01-20T02:51:01.694Z,1016.80
2024-01-20T02:52:01.669Z,1016.76
2024-01-20T02:53:01.656Z,1016.73
2024-01-20T02:54:01.693Z,1016.74
2024-01-20T02:55:01.687Z,1016.76
2024-01-20T02:56:01.640Z,1016.79
2024-01-20T02:57:01.665Z,1016.78
2024-01-20T02:58:01.589Z,1016.85
2024-01-20T02:59:01.605Z,1016.86
2024-01-20T03:00:01.694Z,1016.81
2024-01-20T03:01:01.625Z,1016.86
2024-01-20T03:02:01.553Z,1016.86
2024-01-20T03:03:01.766Z,1016.86
2024-01-20T03:04:01.635Z,1017.00
2024-01-20T03:05:01.627Z,1016.93
2024-01-20T03:06:01.620Z,1016.89
2024-01-20T03:07:01.522Z,1016.85
2024-01-20T03:08:01.522Z,1016.87
2024-01-20T03:09:01.560Z,1016.98
2024-01-20T03:10:01.476Z,1016.94
2024-01-20T03:11:01.487Z,1016.89
2024-01-20T03:12:01.551Z,1016.91
2024-01-20T03:13:01.467Z,1016.92
2024-01-20T03:14:01.508Z,1016.98
2024-01-20T03:15:01.611Z,1016.90
2024-01-20T03:16:01.422Z,1016.97
2024-01-20T03:17:01.456Z,1016.91
2024-01-20T03:18:01.582Z,1017.08
2024-01-20T03:19:01.417Z,1016.96
2024-01-20T03:20:01.484Z,1016.92
2024-01-20T03:21:01.397Z,1016.96
2024-01-20T03:22:01.367Z,1017.02
2024-01-20T03:23:01.369Z,1016.99
2024-01-20T03:24:01.447Z,1017.00
2024-01-20T03:25:01.340Z,1017.15
2024-01-20T03:26:02.269Z,1017.04
2024-01-20T03:27:01.419Z,1017.05
2024-01-20T03:28:02.255Z,1017.12
2024-01-20T03:29:01.325Z,1017.05
2024-01-20T03:30:01.339Z,1017.09
2024-01-20T03:31:01.332Z,1017.07
2024-01-20T03:32:01.328Z,1017.05
2024-01-20T03:33:01.391Z,1017.08
2024-01-20T03:34:01.352Z,1017.09
2024-01-20T03:35:01.254Z,1017.16
2024-01-20T03:36:01.277Z,1017.37
2024-01-20T03:37:01.213Z,1017.13
2024-01-20T03:38:01.216Z,1017.09
2024-01-20T03:39:01.234Z,1017.18
2024-01-20T03:40:01.169Z,1017.20
2024-01-20T03:41:01.166Z,1017.26
2024-01-20T03:42:01.267Z,1017.20
2024-01-20T03:43:01.142Z,1017.23
2024-01-20T03:44:01.120Z,1017.19
2024-01-20T03:45:01.178Z,1017.31
2024-01-20T03:46:01.094Z,1017.25
2024-01-20T03:47:01.106Z,1017.25
2024-01-20T03:48:01.218Z,1017.27
2024-01-20T03:49:02.200Z,1017.25
2024-01-20T03:50:01.232Z,1017.26
2024-01-20T03:51:01.175Z,1017.30
2024-01-20T03:52:01.035Z,1017.24
2024-01-20T03:53:01.032Z,1017.22
2024-01-20T03:54:01.049Z,1017.24
2024-01-20T03:55:01.032Z,1017.34
2024-01-20T03:56:00.999Z,1017.38
2024-01-20T03:57:01.087Z,1017.44
2024-01-20T03:58:00.987Z,1017.44
2024-01-20T03:59:00.975Z,1017.37
2024-01-20T04:00:01.060Z,1017.40
2024-01-20T04:01:01.031Z,1017.49
2024-01-20T04:02:00.933Z,1017.39
2024-01-20T04:03:01.008Z,1017.57
2024-01-20T04:04:00.969Z,1017.48
2024-01-20T04:05:01.911Z,1017.45
2024-01-20T04:06:00.962Z,1017.42
2024-01-20T04:07:01.021Z,1017.38
2024-01-20T04:08:00.869Z,1017.41
2024-01-20T04:09:00.951Z,1017.39
2024-01-20T04:10:00.896Z,1017.47
2024-01-20T04:11:00.861Z,1017.38
2024-01-20T04:12:00.875Z,1017.46
2024-01-20T04:13:00.851Z,1017.41
2024-01-20T04:14:00.869Z,1017.39
2024-01-20T04:15:00.907Z,1017.39
2024-01-20T04:16:00.791Z,1017.39
2024-01-20T04:17:00.786Z,1017.33
2024-01-20T04:18:00.880Z,1017.29
2024-01-20T04:19:00.942Z,1017.43
2024-01-20T04:20:00.734Z,1017.38
2024-01-20T04:21:00.763Z,1017.32
2024-01-20T04:22:00.722Z,1017.37
2024-01-20T04:23:00.743Z,1017.38
2024-01-20T04:24:00.847Z,1017.26
2024-01-20T04:25:00.697Z,1017.34
2024-01-20T04:26:00.701Z,1017.37
2024-01-20T04:27:00.778Z,1017.36
2024-01-20T04:28:00.658Z,1017.45
2024-01-20T04:29:00.655Z,1017.37
2024-01-20T04:30:00.793Z,1017.43
2024-01-20T04:31:00.643Z,1017.46
2024-01-20T04:32:01.592Z,1017.51
2024-01-20T04:33:00.650Z,1017.49
2024-01-20T04:34:00.665Z,1017.49
2024-01-20T04:35:00.611Z,1017.49
2024-01-20T04:36:01.604Z,1017.54
2024-01-20T04:37:00.588Z,1017.50
2024-01-20T04:38:00.576Z,1017.48
2024-01-20T04:39:00.586Z,1017.60
2024-01-20T04:40:00.564Z,1017.54
2024-01-20T04:41:00.541Z,1017.57
2024-01-20T04:42:00.619Z,1017.61
2024-01-20T04:43:00.517Z,1017.59
2024-01-20T04:44:00.523Z,1017.63
2024-01-20T04:45:00.624Z,1017.53
2024-01-20T04:46:00.467Z,1017.54
2024-01-20T04:47:00.475Z,1017.61
2024-01-20T04:48:00.574Z,1017.60
2024-01-20T04:49:01.443Z,1017.66
2024-01-20T04:50:00.431Z,1017.58
2024-01-20T04:51:00.468Z,1017.57
2024-01-20T04:52:00.401Z,1017.58
2024-01-20T04:53:00.414Z,1017.65
2024-01-20T04:54:00.493Z,1017.85
2024-01-20T04:55:00.376Z,1017.65
2024-01-20T04:56:00.366Z,1017.77
2024-01-20T04:57:00.401Z,1017.74
2024-01-20T04:58:00.341Z,1017.80
2024-01-20T04:59:00.339Z,1017.82
2024-01-20T05:00:00.625Z,1017.82
2024-01-20T05:01:01.302Z,1017.81
2024-01-20T05:02:00.294Z,1017.81
2024-01-20T05:03:00.373Z,1017.73
2024-01-20T05:04:00.384Z,1017.84
2024-01-20T05:05:01.239Z,1017.71
2024-01-20T05:06:00.385Z,1017.70
2024-01-20T05:07:00.368Z,1017.83
2024-01-20T05:08:00.248Z,1017.74
2024-01-20T05:09:00.308Z,1017.80
2024-01-20T05:10:00.252Z,1017.81
2024-01-20T05:11:00.196Z,1017.79
2024-01-20T05:12:00.297Z,1017.90
2024-01-20T05:13:00.196Z,1017.72
2024-01-20T05:14:00.189Z,1017.85
2024-01-20T05:15:00.278Z,1017.98
2024-01-20T05:16:00.146Z,1018.02
2024-01-20T05:17:00.168Z,1017.98
2024-01-20T05:18:00.446Z,1018.01
2024-01-20T05:19:00.337Z,1018.00
2024-01-20T05:20:00.278Z,1018.00
2024-01-20T05:21:00.137Z,1018.07
2024-01-20T05:22:00.106Z,1018.20
2024-01-20T05:23:00.080Z,1018.05
2024-01-20T05:24:00.193Z,1018.16
2024-01-20T05:25:00.064Z,1018.33
2024-01-20T05:26:00.058Z,1018.08
2024-01-20T05:27:00.065Z,1018.10
2024-01-20T05:28:00.043Z,1018.06
2024-01-20T05:29:00.012Z,1018.22
2024-01-20T05:30:00.086Z,1018.18
2024-01-20T05:30:59.989Z,1018.10
2024-01-20T05:31:59.997Z,1018.17
2024-01-20T05:33:00.042Z,1018.13
2024-01-20T05:34:00.390Z,1018.09
2024-01-20T05:34:59.977Z,1018.20
2024-01-20T05:36:00.017Z,1018.18
2024-01-20T05:36:59.966Z,1018.23
2024-01-20T05:37:59.930Z,1018.20
2024-01-20T05:38:59.930Z,1018.26
2024-01-20T05:39:59.961Z,1018.33
2024-01-20T05:40:59.885Z,1018.33
2024-01-20T05:41:59.998Z,1018.31
2024-01-20T05:42:59.872Z,1018.23
2024-01-20T05:43:59.866Z,1018.25
2024-01-20T05:44:59.887Z,1018.18
2024-01-20T05:46:00.000Z,1018.25
2024-01-20T05:46:59.856Z,1018.13
2024-01-20T05:48:00.136Z,1018.24
2024-01-20T05:48:59.949Z,1018.34
2024-01-20T05:49:59.826Z,1018.18
2024-01-20T05:50:59.839Z,1018.21
2024-01-20T05:51:59.788Z,1018.24
2024-01-20T05:52:59.773Z,1018.23
2024-01-20T05:53:59.867Z,1018.19
2024-01-20T05:54:59.742Z,1018.27
2024-01-20T05:55:59.769Z,1018.24
2024-01-20T05:56:59.754Z,1018.30
2024-01-20T05:57:59.773Z,1018.32
2024-01-20T05:58:59.704Z,1018.24
2024-01-20T05:59:59.785Z,1018.21
2024-01-20T06:00:59.724Z,1018.19
2024-01-20T06:01:59.687Z,1018.15
2024-01-20T06:03:00.659Z,1018.18
2024-01-20T06:03:59.740Z,1018.19
2024-01-20T06:04:59.719Z,1018.30
2024-01-20T06:06:00.711Z,1018.26
2024-01-20T06:06:59.630Z,1018.29
2024-01-20T06:07:59.631Z,1018.32
2024-01-20T06:08:59.662Z,1018.28
2024-01-20T06:09:59.614Z,1018.40
2024-01-20T06:10:59.602Z,1018.39
2024-01-20T06:11:59.632Z,1018.40
2024-01-20T06:12:59.568Z,1018.38
2024-01-20T06:13:59.563Z,1018.36
2024-01-20T06:14:59.621Z,1018.46
2024-01-20T06:15:59.550Z,1018.45
2024-01-20T06:16:59.530Z,1018.59
2024-01-20T06:17:59.610Z,1018.52
2024-01-20T06:18:59.550Z,1018.51
2024-01-20T06:19:59.517Z,1018.57
2024-01-20T06:20:59.496Z,1018.59
2024-01-20T06:21:59.490Z,1018.57
2024-01-20T06:22:59.490Z,1018.50
2024-01-20T06:23:59.756Z,1018.58
2024-01-20T06:24:59.427Z,1018.62
2024-01-20T06:25:59.432Z,1018.66
2024-01-20T06:26:59.468Z,1018.65
2024-01-20T06:27:59.415Z,1018.62
2024-01-20T06:28:59.402Z,1018.76
2024-01-20T06:29:59.533Z,1018.78
2024-01-20T06:30:59.393Z,1018.61
2024-01-20T06:31:59.366Z,1018.67
2024-01-20T06:32:59.551Z,1018.63
2024-01-20T06:33:59.509Z,1018.68
2024-01-20T06:34:59.376Z,1018.68
2024-01-20T06:35:59.394Z,1018.59
2024-01-20T06:36:59.292Z,1018.66
2024-01-20T06:37:59.315Z,1018.67
2024-01-20T06:38:59.319Z,1018.70
2024-01-20T06:39:59.339Z,1018.65
2024-01-20T06:40:59.266Z,1018.60
2024-01-20T06:41:59.406Z,1018.66
2024-01-20T06:42:59.263Z,1018.74
2024-01-20T06:43:59.249Z,1018.76
2024-01-20T06:45:01.173Z,1018.71
2024-01-20T06:45:59.248Z,1018.80
2024-01-20T06:46:59.205Z,1018.83
2024-01-20T06:47:59.406Z,1018.73
2024-01-20T06:48:59.296Z,1018.73
2024-01-20T06:49:59.197Z,1018.76
2024-01-20T06:50:59.176Z,1018.83
2024-01-20T06:51:59.147Z,1018.81
2024-01-20T06:52:59.140Z,1018.74
2024-01-20T06:53:59.494Z,1018.74
2024-01-20T06:54:59.126Z,1018.74
2024-01-20T06:55:59.108Z,1018.74
2024-01-20T06:56:59.109Z,1018.77
2024-01-20T06:57:59.089Z,1018.73
2024-01-20T06:58:59.065Z,1018.66
2024-01-20T06:59:59.139Z,1018.65
2024-01-20T07:00:59.086Z,1018.78
2024-01-20T07:01:59.048Z,1018.73
2024-01-20T07:02:59.100Z,1018.69
2024-01-20T07:03:59.134Z,1018.70
2024-01-20T07:04:59.024Z,1018.78
2024-01-20T07:05:59.135Z,1018.71
2024-01-20T07:06:59.024Z,1018.77
2024-01-20T07:07:58.989Z,1018.79
2024-01-20T07:08:58.990Z,1018.77
2024-01-20T07:09:58.981Z,1018.74
2024-01-20T07:10:58.951Z,1018.78
2024-01-20T07:11:59.368Z,1018.76
2024-01-20T07:12:58.919Z,1018.76
2024-01-20T07:13:58.938Z,1018.77
2024-01-20T07:14:58.945Z,1018.86
2024-01-20T07:15:58.903Z,1018.83
2024-01-20T07:16:58.881Z,1018.79
2024-01-20T07:17:58.961Z,1018.81
2024-01-20T07:18:58.919Z,1018.82
2024-01-20T07:19:58.862Z,1018.81
2024-01-20T07:20:58.897Z,1018.86
2024-01-20T07:21:58.833Z,1018.80
2024-01-20T07:22:58.814Z,1018.85
2024-01-20T07:23:58.878Z,1018.89
2024-01-20T07:24:58.791Z,1018.87
2024-01-20T07:25:58.806Z,1018.85
2024-01-20T07:26:58.811Z,1018.92
2024-01-20T07:27:58.778Z,1018.89
2024-01-20T07:28:59.492Z,1018.89
2024-01-20T07:29:58.801Z,1018.97
2024-01-20T07:30:58.736Z,1018.92
2024-01-20T07:31:58.731Z,1018.89
2024-01-20T07:32:58.815Z,1019.00
2024-01-20T07:33:58.793Z,1019.06
2024-01-20T07:34:58.779Z,1019.00
2024-01-20T07:35:58.831Z,1018.96
2024-01-20T07:36:58.669Z,1019.08
2024-01-20T07:37:58.665Z,1019.05
2024-01-20T07:38:58.782Z,1018.99
2024-01-20T07:39:58.649Z,1018.98
2024-01-20T07:40:58.643Z,1019.19
2024-01-20T07:41:58.796Z,1019.11
2024-01-20T07:42:58.635Z,1019.08
2024-01-20T07:43:58.621Z,1019.03
2024-01-20T07:44:58.608Z,1019.10
2024-01-20T07:45:58.619Z,1019.17
2024-01-20T07:46:58.616Z,1019.03
2024-01-20T07:47:58.646Z,1019.11
2024-01-20T07:48:58.609Z,1019.13
2024-01-20T07:49:58.548Z,1019.04
2024-01-20T07:50:58.553Z,1019.27
2024-01-20T07:51:58.516Z,1019.23
2024-01-20T07:52:58.505Z,1019.14
2024-01-20T07:53:58.563Z,1019.16
2024-01-20T07:54:58.502Z,1019.23
2024-01-20T07:55:58.492Z,1019.29
2024-01-20T07:56:58.482Z,1019.27
2024-01-20T07:57:58.474Z,1019.26
2024-01-20T07:58:58.453Z,1019.38
2024-01-20T07:59:58.508Z,1019.27
2024-01-20T08:00:58.479Z,1019.28
2024-01-20T08:01:58.415Z,1019.26
2024-01-20T08:02:58.488Z,1019.37
2024-01-20T08:03:58.434Z,1019.35
2024-01-20T08:04:58.392Z,1019.37
2024-01-20T08:05:58.479Z,1019.43
2024-01-20T08:06:58.774Z,1019.47
2024-01-20T08:07:58.350Z,1019.50
2024-01-20T08:08:58.371Z,1019.51
2024-01-20T08:09:58.462Z,1019.44
2024-01-20T08:10:58.325Z,1019.48
2024-01-20T08:11:58.399Z,1019.47
2024-01-20T08:12:58.289Z,1019.58
2024-01-20T08:13:58.300Z,1019.53
2024-01-20T08:14:58.307Z,1019.53
2024-01-20T08:15:58.314Z,1019.74
2024-01-20T08:16:58.279Z,1019.60
2024-01-20T08:17:58.446Z,1019.57
2024-01-20T08:18:58.403Z,1019.59
2024-01-20T08:19:58.251Z,1019.52
2024-01-20T08:20:59.205Z,1019.62
2024-01-20T08:21:58.221Z,1019.55
2024-01-20T08:22:58.187Z,1019.56
2024-01-20T08:23:58.262Z,1019.67
2024-01-20T08:24:58.161Z,1019.47
2024-01-20T08:25:58.166Z,1019.65
2024-01-20T08:26:58.137Z,1019.66
2024-01-20T08:27:58.142Z,1019.64
2024-01-20T08:28:58.122Z,1019.71
2024-01-20T08:29:58.245Z,1019.57
2024-01-20T08:30:58.292Z,1019.53
2024-01-20T08:31:58.106Z,1019.58
2024-01-20T08:33:01.681Z,1019.66
2024-01-20T08:33:59.197Z,1019.71
2024-01-20T08:34:58.067Z,1019.70
2024-01-20T08:35:58.160Z,1019.67
2024-01-20T08:36:58.043Z,1019.77
2024-01-20T08:37:58.029Z,1019.70
2024-01-20T08:38:58.049Z,1019.73
2024-01-20T08:39:58.017Z,1019.69
2024-01-20T08:40:59.224Z,1019.68
2024-01-20T08:41:58.046Z,1019.74
2024-01-20T08:42:57.975Z,1019.77
2024-01-20T08:43:57.977Z,1019.78
2024-01-20T08:44:58.012Z,1019.68
2024-01-20T08:45:57.970Z,1019.78
2024-01-20T08:46:57.966Z,1019.79
2024-01-20T08:47:58.056Z,1019.74
2024-01-20T08:48:57.909Z,1019.79
2024-01-20T08:49:57.916Z,1019.69
2024-01-20T08:50:57.927Z,1019.71
2024-01-20T08:51:57.888Z,1019.71
2024-01-20T08:52:57.942Z,1019.72
2024-01-20T08:53:57.930Z,1019.77
2024-01-20T08:54:57.843Z,1019.67
2024-01-20T08:55:57.837Z,1019.68
2024-01-20T08:56:57.856Z,1019.75
2024-01-20T08:57:57.827Z,1019.70
2024-01-20T08:58:57.808Z,1019.64
2024-01-20T08:59:57.877Z,1019.68
2024-01-20T09:00:57.937Z,1019.72
2024-01-20T09:01:57.778Z,1019.80
2024-01-20T09:02:57.866Z,1019.70
2024-01-20T09:03:57.947Z,1019.77
2024-01-20T09:04:57.747Z,1019.74
2024-01-20T09:05:57.933Z,1019.72
2024-01-20T09:06:57.766Z,1019.83
2024-01-20T09:07:57.727Z,1019.81
2024-01-20T09:08:58.677Z,1019.72
2024-01-20T09:09:59.062Z,1019.70
2024-01-20T09:10:57.687Z,1019.74
2024-01-20T09:11:57.732Z,1019.66
2024-01-20T09:12:57.651Z,1019.71
2024-01-20T09:13:57.649Z,1019.80
2024-01-20T09:14:57.697Z,1019.73
2024-01-20T09:15:57.709Z,1019.70
2024-01-20T09:16:57.643Z,1019.71
2024-01-20T09:17:57.758Z,1019.87
2024-01-20T09:18:57.680Z,1019.87
2024-01-20T09:19:57.733Z,1019.87
2024-01-20T09:20:57.575Z,1019.79
2024-01-20T09:21:57.567Z,1019.78
2024-01-20T09:22:57.539Z,1019.86
2024-01-20T09:23:57.610Z,1019.80
2024-01-20T09:24:57.511Z,1019.97
2024-01-20T09:25:57.535Z,1019.87
2024-01-20T09:26:57.559Z,1019.88
2024-01-20T09:27:57.515Z,1019.89
2024-01-20T09:28:57.461Z,1019.92
2024-01-20T09:29:57.531Z,1019.85
2024-01-20T09:30:57.470Z,1019.90
2024-01-20T09:31:57.444Z,1019.84
2024-01-20T09:32:57.525Z,1019.82
2024-01-20T09:33:57.517Z,1019.83
2024-01-20T09:34:57.433Z,1019.83
2024-01-20T09:35:57.481Z,1019.86
2024-01-20T09:36:57.393Z,1019.86
2024-01-20T09:37:57.372Z,1019.85
2024-01-20T09:38:57.401Z,1019.97
2024-01-20T09:39:57.345Z,1019.85
2024-01-20T09:40:57.345Z,1019.91
2024-01-20T09:41:57.383Z,1020.00
2024-01-20T09:42:57.343Z,1020.09
2024-01-20T09:43:57.309Z,1019.98
2024-01-20T09:44:57.335Z,1019.86
2024-01-20T09:45:57.295Z,1020.08
2024-01-20T09:46:57.279Z,1020.16
2024-01-20T09:47:57.450Z,1020.02
2024-01-20T09:48:57.431Z,1019.98
2024-01-20T09:49:57.259Z,1019.98
2024-01-20T09:50:57.273Z,1020.00
2024-01-20T09:51:57.229Z,1020.06
2024-01-20T09:52:57.223Z,1020.02
2024-01-20T09:53:57.271Z,1020.13
2024-01-20T09:54:57.190Z,1020.18
2024-01-20T09:55:57.180Z,1020.14
2024-01-20T09:56:57.172Z,1020.06
2024-01-20T09:57:57.154Z,1019.99
2024-01-20T09:58:57.172Z,1020.00
2024-01-20T09:59:58.240Z,1019.97
2024-01-20T10:00:57.195Z,1020.01
2024-01-20T10:01:57.102Z,1019.88
2024-01-20T10:02:57.120Z,1019.96
2024-01-20T10:03:57.165Z,1019.95
2024-01-20T10:04:57.150Z,1019.92
2024-01-20T10:05:57.138Z,1019.89
2024-01-20T10:06:57.064Z,1019.91
2024-01-20T10:07:57.071Z,1019.90
2024-01-20T10:08:57.126Z,1019.95
2024-01-20T10:09:57.020Z,1019.85
2024-01-20T10:10:57.052Z,1019.88
2024-01-20T10:11:57.064Z,1019.81
2024-01-20T10:12:56.989Z,1019.82
2024-01-20T10:13:56.971Z,1019.91
2024-01-20T10:14:57.017Z,1019.89
2024-01-20T10:15:57.024Z,1019.89
2024-01-20T10:16:56.952Z,1019.78
2024-01-20T10:17:57.077Z,1019.85
2024-01-20T10:18:57.038Z,1019.82
2024-01-20T10:19:57.024Z,1019.88
2024-01-20T10:20:56.968Z,1019.81
2024-01-20T10:21:56.884Z,1019.83
2024-01-20T10:22:56.890Z,1019.86
2024-01-20T10:23:56.925Z,1019.81
2024-01-20T10:24:56.884Z,1019.91
2024-01-20T10:25:56.851Z,1019.84
2024-01-20T10:26:56.888Z,1019.87
2024-01-20T10:27:56.843Z,1019.87
2024-01-20T10:28:56.827Z,1019.85
2024-01-20T10:29:56.986Z,1019.95
2024-01-20T10:30:56.849Z,1019.96
2024-01-20T10:31:57.781Z,1019.98
2024-01-20T10:33:08.220Z,1019.99
2024-01-20T10:33:57.887Z,1020.02
2024-01-20T10:34:56.937Z,1019.99
2024-01-20T10:35:56.887Z,1019.99
2024-01-20T10:36:56.747Z,1020.03
2024-01-20T10:37:56.738Z,1020.12
2024-01-20T10:38:56.792Z,1020.13
2024-01-20T10:39:56.739Z,1020.09
2024-01-20T10:40:56.730Z,1020.19
2024-01-20T10:41:56.856Z,1020.10
2024-01-20T10:42:56.694Z,1020.12
2024-01-20T10:43:56.666Z,1020.23
2024-01-20T10:44:56.694Z,1020.11
2024-01-20T10:45:56.661Z,1020.10
2024-01-20T10:46:56.646Z,1020.16
2024-01-20T10:47:56.745Z,1020.08
2024-01-20T10:48:56.743Z,1020.23
2024-01-20T10:49:56.635Z,1020.14
2024-01-20T10:50:56.755Z,1020.16
2024-01-20T10:51:56.694Z,1020.25
2024-01-20T10:52:56.595Z,1020.14
2024-01-20T10:53:56.644Z,1020.08
2024-01-20T10:54:56.568Z,1020.11
2024-01-20T10:55:56.567Z,1020.15
2024-01-20T10:56:56.587Z,1020.22
2024-01-20T10:57:56.541Z,1020.10
2024-01-20T10:58:56.543Z,1020.22
2024-01-20T10:59:56.598Z,1020.20
2024-01-20T11:00:56.584Z,1020.07
2024-01-20T11:01:56.494Z,1020.12
2024-01-20T11:02:56.512Z,1020.15
2024-01-20T11:03:56.572Z,1020.12
2024-01-20T11:04:56.463Z,1020.01
2024-01-20T11:05:56.570Z,1020.09
2024-01-20T11:06:56.511Z,1020.00
2024-01-20T11:07:56.436Z,1019.95
2024-01-20T11:08:56.492Z,1019.97
2024-01-20T11:09:56.407Z,1019.88
2024-01-20T11:10:56.425Z,1019.97
2024-01-20T11:11:56.523Z,1019.95
2024-01-20T11:12:56.391Z,1020.01
2024-01-20T11:13:56.371Z,1019.96
2024-01-20T11:14:56.501Z,1019.94
2024-01-20T11:15:56.349Z,1019.89
2024-01-20T11:16:56.355Z,1019.90
2024-01-20T11:17:56.430Z,1019.90
2024-01-20T11:18:56.376Z,1019.86
2024-01-20T11:19:56.333Z,1019.84
2024-01-20T11:20:56.382Z,1019.93
2024-01-20T11:21:56.286Z,1019.90
2024-01-20T11:22:56.308Z,1019.81
2024-01-20T11:23:56.334Z,1019.82
2024-01-20T11:24:56.293Z,1019.82
2024-01-20T11:25:56.249Z,1019.72
2024-01-20T11:26:56.250Z,1019.73
2024-01-20T11:27:56.219Z,1019.84
2024-01-20T11:28:56.208Z,1019.75
2024-01-20T11:29:56.235Z,1019.71
2024-01-20T11:30:56.217Z,1019.71
2024-01-20T11:31:56.172Z,1019.79
2024-01-20T11:32:56.242Z,1019.72
2024-01-20T11:33:56.243Z,1019.79
2024-01-20T11:34:56.173Z,1019.76
2024-01-20T11:35:56.183Z,1019.65
2024-01-20T11:36:56.145Z,1019.70
2024-01-20T11:37:56.114Z,1019.72
2024-01-20T11:38:57.057Z,1019.65
2024-01-20T11:39:56.088Z,1019.63
2024-01-20T11:40:56.094Z,1019.53
2024-01-20T11:41:56.104Z,1019.64
2024-01-20T11:42:56.071Z,1019.59
2024-01-20T11:43:56.048Z,1019.56
2024-01-20T11:44:56.048Z,1019.60
2024-01-20T11:45:56.033Z,1019.67
2024-01-20T11:46:56.032Z,1019.57
2024-01-20T11:47:56.043Z,1019.61
2024-01-20T11:48:56.284Z,1019.61
2024-01-20T11:49:56.156Z,1019.56
2024-01-20T11:50:56.021Z,1019.53
2024-01-20T11:51:55.956Z,1019.56
2024-01-20T11:52:55.967Z,1019.66
2024-01-20T11:53:55.993Z,1019.58
2024-01-20T11:54:56.899Z,1019.54
2024-01-20T11:55:55.969Z,1019.58
2024-01-20T11:56:55.906Z,1019.44
2024-01-20T11:57:55.965Z,1019.43
2024-01-20T11:58:55.891Z,1019.39
2024-01-20T11:59:55.911Z,1019.45
2024-01-20T12:00:56.704Z,1019.52
2024-01-20T12:01:55.842Z,1019.40
2024-01-20T12:02:55.976Z,1019.36
2024-01-20T12:03:55.866Z,1019.30
2024-01-20T12:05:01.804Z,1019.34